Etusivu
METAR-TAF:

METAR-TAF

Lentoasemat :

Pau, Ranska

Leveyspiiri: 43-23N, Pituuspiiri: 000-25W, korkeus merenpinnasta: 188 m

Tämänhetkinen sää

Tämä raportti tehtiin 34 minuuttia sitten, kello 06.00 UTC
Tuuli 4 kn idästä, vaihdellen idän/koillisen ja idän/kaakon välillä
Lämpötila 4°C
Kosteus 87%
Ilmanpaine 1023 hPa
Näkyvyys 10 km tai enemmän
ei pilviä alle 1500 m:ssä eikä cumulonimbus-pilviä

METAR: LFBP 190600Z AUTO 09004KT 060V120 CAVOK 04/02 Q1023 NOSIG

Aika: 08:34 (06:34 UTC)

Sääennuste

Tämä raportti tehtiin 1 tunti ja 34 minuuttia sitten, kello 05.00 UTC
Ennuste voimassa 19. päivästä klo 06 UTC - 20. päivään klo 06 UTC
Tuuli 4 kn idästä
Näkyvyys 10 km tai enemmän
ei pilviä alle 1500 m:ssä eikä cumulonimbus-pilviä

TAF: LFBP 190500Z 1906/2006 09004KT CAVOK

Säähavainnot ja -ennusteet yli 4000 lentoasemalta (METAR- ja TAF-raportit).

Käytössä olevat sääasemat on merkitty karttaan keltaisilla ja punaisilla pisteillä.

Aseta hiiri pisteen päälle nähdäksesi sääaseman nimen.

Klikkaa sitten nähdäksesi säähavainnot ja -ennusteet.

Kartan vaihtaminen: klikkaa mustalla rastilla varustettuja vihreitä pisteitä, niin voit zoomata sisään; viivalla varustettua vihreää pistettä, niin voit zoomata ulos tai vihreitä nuolia, niin pääset viereisille kartoille.


METAR-TAF: